createdAt,value
2022-10-19T00:00:19.488Z,20.34
2022-10-19T00:02:48.940Z,20.23
2022-10-19T00:05:17.351Z,20.28
2022-10-19T00:07:45.554Z,20.28
2022-10-19T00:10:13.689Z,20.24
2022-10-19T00:12:42.169Z,20.17
2022-10-19T00:15:11.042Z,20.16
2022-10-19T00:17:39.227Z,20.05
2022-10-19T00:20:09.999Z,20.13
2022-10-19T00:22:38.098Z,20.11
2022-10-19T00:25:07.106Z,20.18
2022-10-19T00:27:35.754Z,20.18
2022-10-19T00:30:07.502Z,20.03
2022-10-19T00:32:36.971Z,20.16
2022-10-19T00:35:06.491Z,20.16
2022-10-19T00:37:40.776Z,20.31
2022-10-19T00:40:11.003Z,20.36
2022-10-19T00:42:39.382Z,20.35
2022-10-19T00:45:12.952Z,20.20
2022-10-19T00:47:42.689Z,20.26
2022-10-19T00:50:10.905Z,20.34
2022-10-19T00:52:43.277Z,20.29
2022-10-19T00:55:11.412Z,20.27
2022-10-19T00:57:39.623Z,20.10
2022-10-19T01:00:09.749Z,20.24
2022-10-19T01:02:37.965Z,20.26
2022-10-19T01:05:06.904Z,20.24
2022-10-19T01:07:35.220Z,20.27
2022-10-19T01:10:06.101Z,20.23
2022-10-19T01:12:48.834Z,20.28
2022-10-19T01:15:23.060Z,20.37
2022-10-19T01:18:02.057Z,20.45
2022-10-19T01:20:51.362Z,20.54
2022-10-19T01:23:46.765Z,20.61
2022-10-19T01:26:25.597Z,20.51
2022-10-19T01:29:00.281Z,20.67
2022-10-19T01:31:32.986Z,20.73
2022-10-19T01:34:06.019Z,20.67
2022-10-19T01:36:37.244Z,20.76
2022-10-19T01:39:09.588Z,20.77
2022-10-19T01:41:42.471Z,20.77
2022-10-19T01:44:12.521Z,20.72
2022-10-19T01:46:43.351Z,20.73
2022-10-19T01:49:12.780Z,20.76
2022-10-19T01:51:42.996Z,20.67
2022-10-19T01:54:12.486Z,20.73
2022-10-19T01:56:42.431Z,20.73
2022-10-19T01:59:10.901Z,20.74
2022-10-19T02:01:42.221Z,20.73
2022-10-19T02:04:10.283Z,20.67
2022-10-19T02:06:38.338Z,20.57
2022-10-19T02:09:06.511Z,20.64
2022-10-19T02:11:34.812Z,20.54
2022-10-19T02:14:08.850Z,20.62
2022-10-19T02:16:39.973Z,20.65
2022-10-19T02:19:09.658Z,20.57
2022-10-19T02:21:37.840Z,20.62
2022-10-19T02:24:06.808Z,20.64
2022-10-19T02:26:35.442Z,20.64
2022-10-19T02:29:03.506Z,20.50
2022-10-19T02:31:31.741Z,20.48
2022-10-19T02:33:59.840Z,20.56
2022-10-19T02:36:29.391Z,20.63
2022-10-19T02:38:57.403Z,20.61
2022-10-19T02:41:27.915Z,20.57
2022-10-19T02:43:57.432Z,20.54
2022-10-19T02:46:29.929Z,20.51
2022-10-19T02:48:58.207Z,20.60
2022-10-19T02:51:32.291Z,20.54
2022-10-19T02:54:04.088Z,20.60
2022-10-19T02:56:33.574Z,20.61
2022-10-19T02:59:02.792Z,20.62
2022-10-19T03:01:32.154Z,20.65
2022-10-19T03:04:00.500Z,20.62
2022-10-19T03:06:28.580Z,20.61
2022-10-19T03:08:58.792Z,20.59
2022-10-19T03:11:28.517Z,20.61
2022-10-19T03:13:56.810Z,20.50
2022-10-19T03:16:24.891Z,20.63
2022-10-19T03:18:53.108Z,20.63
2022-10-19T03:21:21.213Z,20.60
2022-10-19T03:23:50.228Z,20.63
2022-10-19T03:26:20.453Z,20.55
2022-10-19T03:28:51.391Z,20.69
2022-10-19T03:31:19.593Z,20.67
2022-10-19T03:33:48.781Z,20.64
2022-10-19T03:36:18.194Z,20.64
2022-10-19T03:38:46.232Z,20.63
2022-10-19T03:41:14.458Z,20.62
2022-10-19T03:43:45.937Z,20.63
2022-10-19T03:46:14.359Z,20.52
2022-10-19T03:48:42.755Z,20.52
2022-10-19T03:51:12.144Z,20.61
2022-10-19T03:53:40.701Z,20.57
2022-10-19T03:56:10.133Z,20.59
2022-10-19T03:58:38.628Z,20.41
2022-10-19T04:01:12.159Z,20.51
2022-10-19T04:03:40.699Z,20.45
2022-10-19T04:06:09.829Z,20.45
2022-10-19T04:08:38.960Z,20.35
2022-10-19T04:11:09.051Z,20.37
2022-10-19T04:13:37.240Z,20.30
2022-10-19T04:16:05.906Z,20.44
2022-10-19T04:18:35.377Z,20.43
2022-10-19T04:21:05.598Z,20.46
2022-10-19T04:23:35.061Z,20.43
2022-10-19T04:26:03.359Z,20.46
2022-10-19T04:28:32.679Z,20.43
2022-10-19T04:31:04.410Z,20.47
2022-10-19T04:33:32.673Z,20.38
2022-10-19T04:36:06.853Z,20.49
2022-10-19T04:38:35.473Z,20.42
2022-10-19T04:41:04.004Z,20.48
2022-10-19T04:43:34.536Z,20.48
2022-10-19T04:46:06.180Z,20.47
2022-10-19T04:48:35.435Z,20.47
2022-10-19T04:51:05.013Z,20.47
2022-10-19T04:53:33.307Z,20.49
2022-10-19T04:56:01.948Z,20.43
2022-10-19T04:58:31.446Z,20.50
2022-10-19T05:00:59.678Z,20.48
2022-10-19T05:03:27.815Z,20.49
2022-10-19T05:05:55.938Z,20.41
2022-10-19T05:08:25.605Z,20.47
2022-10-19T05:10:53.760Z,20.48
2022-10-19T05:13:22.587Z,20.35
2022-10-19T05:15:58.077Z,20.45
2022-10-19T05:18:26.736Z,20.46
2022-10-19T05:21:02.260Z,20.44
2022-10-19T05:26:02.934Z,20.49
2022-10-19T05:28:31.897Z,20.47
2022-10-19T05:31:06.708Z,20.45
2022-10-19T05:33:35.067Z,20.47
2022-10-19T05:36:14.598Z,20.48
2022-10-19T05:38:47.481Z,20.38
2022-10-19T05:41:17.349Z,20.40
2022-10-19T05:43:46.781Z,20.37
2022-10-19T05:46:17.567Z,20.36
2022-10-19T05:48:45.954Z,20.23
2022-10-19T05:51:17.309Z,20.38
2022-10-19T05:53:49.622Z,20.39
2022-10-19T05:56:19.665Z,20.39
2022-10-19T05:58:52.431Z,20.38
2022-10-19T06:01:22.113Z,20.32
2022-10-19T06:03:54.316Z,20.33
2022-10-19T06:06:25.104Z,20.21
2022-10-19T06:08:56.953Z,20.27
2022-10-19T06:11:26.533Z,20.30
2022-10-19T06:13:55.306Z,20.28
2022-10-19T06:16:23.983Z,20.30
2022-10-19T06:18:54.204Z,20.30
2022-10-19T06:21:23.786Z,20.24
2022-10-19T06:23:51.875Z,20.25
2022-10-19T06:26:21.695Z,20.25
2022-10-19T06:28:50.491Z,20.29
2022-10-19T06:31:24.378Z,20.25
2022-10-19T06:33:52.623Z,20.22
2022-10-19T06:36:22.372Z,20.27
2022-10-19T06:38:50.735Z,20.15
2022-10-19T06:41:18.983Z,20.29
2022-10-19T06:43:52.739Z,20.26
2022-10-19T06:46:23.403Z,20.14
2022-10-19T06:48:52.808Z,20.24
2022-10-19T06:51:23.807Z,20.24
2022-10-19T06:53:56.518Z,20.23
2022-10-19T06:56:25.703Z,20.19
2022-10-19T06:58:56.468Z,20.20
2022-10-19T07:01:28.516Z,20.20
2022-10-19T07:03:57.905Z,20.24
2022-10-19T07:06:27.093Z,20.27
2022-10-19T07:08:55.589Z,20.24
2022-10-19T07:11:23.690Z,20.17
2022-10-19T07:13:51.821Z,20.23
2022-10-19T07:16:22.763Z,20.29
2022-10-19T07:18:51.425Z,20.23
2022-10-19T07:21:19.518Z,20.33
2022-10-19T07:23:48.542Z,20.33
2022-10-19T07:26:17.498Z,20.27
2022-10-19T07:28:46.689Z,20.25
2022-10-19T07:31:15.730Z,20.37
2022-10-19T07:33:45.234Z,20.36
2022-10-19T07:36:14.157Z,20.38
2022-10-19T07:38:42.503Z,20.38
2022-10-19T07:41:13.811Z,20.35
2022-10-19T07:43:43.779Z,20.26
2022-10-19T07:46:12.986Z,20.37
2022-10-19T07:48:41.146Z,20.44
2022-10-19T07:51:17.106Z,20.44
2022-10-19T07:53:45.430Z,20.31
2022-10-19T07:56:15.095Z,20.46
2022-10-19T07:59:21.471Z,20.48
2022-10-19T08:01:55.167Z,20.45
2022-10-19T08:05:04.298Z,20.44
2022-10-19T08:07:40.696Z,20.48
2022-10-19T08:10:20.171Z,20.50
2022-10-19T08:17:22.051Z,20.47
2022-10-19T08:19:53.090Z,20.48
2022-10-19T08:22:37.907Z,20.53
2022-10-19T08:28:50.020Z,20.61
2022-10-19T08:31:20.365Z,20.61
2022-10-19T08:35:12.504Z,20.79
2022-10-19T08:41:40.587Z,20.75
2022-10-19T08:45:15.682Z,20.88
2022-10-19T08:51:16.329Z,20.91
2022-10-19T08:53:47.986Z,21.03
2022-10-19T08:56:50.985Z,21.13
2022-10-19T08:59:27.010Z,21.14
2022-10-19T09:01:59.485Z,21.04
2022-10-19T09:04:48.275Z,21.20
2022-10-19T09:07:37.316Z,21.22
2022-10-19T09:10:25.747Z,21.20
2022-10-19T09:12:59.478Z,21.13
2022-10-19T09:16:06.051Z,21.20
2022-10-19T09:18:36.203Z,21.21
2022-10-19T09:21:11.925Z,21.17
2022-10-19T09:23:45.704Z,21.25
2022-10-19T09:26:25.868Z,21.28
2022-10-19T09:29:30.716Z,21.22
2022-10-19T09:32:01.868Z,21.32
2022-10-19T09:34:54.941Z,21.28
2022-10-19T09:37:44.067Z,21.35
2022-10-19T09:40:13.566Z,21.33
2022-10-19T09:42:46.298Z,21.34
2022-10-19T09:45:25.203Z,21.55
2022-10-19T09:48:13.181Z,21.62
2022-10-19T09:50:48.263Z,21.58
2022-10-19T09:56:07.228Z,21.62
2022-10-19T09:58:39.905Z,21.56
2022-10-19T10:01:40.227Z,21.61
2022-10-19T10:04:18.008Z,21.64
2022-10-19T10:06:48.848Z,21.72
2022-10-19T10:09:18.825Z,21.74
2022-10-19T10:14:22.472Z,21.94
2022-10-19T10:16:55.992Z,21.99
2022-10-19T10:19:27.954Z,22.10
2022-10-19T10:21:58.162Z,22.13
2022-10-19T10:24:26.998Z,22.27
2022-10-19T10:27:34.645Z,22.32
2022-10-19T10:30:13.675Z,22.32
2022-10-19T10:32:50.604Z,22.35
2022-10-19T10:35:21.333Z,22.33
2022-10-19T10:37:51.574Z,22.43
2022-10-19T10:40:24.212Z,22.53
2022-10-19T10:43:00.231Z,22.57
2022-10-19T10:45:35.586Z,22.55
2022-10-19T10:48:16.424Z,22.87
2022-10-19T10:50:44.635Z,23.03
2022-10-19T10:53:33.499Z,23.38
2022-10-19T10:59:29.119Z,23.69
2022-10-19T11:02:02.151Z,23.94
2022-10-19T11:04:54.215Z,24.20
2022-10-19T11:07:30.450Z,24.42
2022-10-19T11:10:00.024Z,24.57
2022-10-19T11:12:36.239Z,24.72
2022-10-19T11:15:08.084Z,24.73
2022-10-19T11:18:16.391Z,24.65
2022-10-19T11:22:13.008Z,24.47
2022-10-19T11:24:54.087Z,24.08
2022-10-19T11:27:28.211Z,23.98
2022-10-19T11:30:04.374Z,23.82
2022-10-19T11:40:16.822Z,23.58
2022-10-19T11:46:51.403Z,23.59
2022-10-19T11:49:57.022Z,23.61
2022-10-19T11:52:30.326Z,23.95
2022-10-19T11:55:45.473Z,24.17
2022-10-19T11:58:35.905Z,24.18
2022-10-19T12:01:12.616Z,24.18
2022-10-19T12:04:13.243Z,24.18
2022-10-19T12:06:52.701Z,24.29
2022-10-19T12:09:39.094Z,24.27
2022-10-19T12:12:16.265Z,24.15
2022-10-19T12:14:48.263Z,24.16
2022-10-19T12:17:21.072Z,24.22
2022-10-19T12:20:12.262Z,24.23
2022-10-19T12:22:50.363Z,24.36
2022-10-19T12:25:19.594Z,24.44
2022-10-19T12:31:46.607Z,24.16
2022-10-19T12:34:41.203Z,24.24
2022-10-19T12:41:16.917Z,24.29
2022-10-19T12:44:16.907Z,24.34
2022-10-19T12:46:52.451Z,24.26
2022-10-19T12:49:59.407Z,24.22
2022-10-19T12:52:48.846Z,24.38
2022-10-19T12:55:34.912Z,24.22
2022-10-19T12:58:07.173Z,24.25
2022-10-19T13:00:36.441Z,24.34
2022-10-19T13:03:43.495Z,24.43
2022-10-19T13:16:46.492Z,24.77
2022-10-19T13:19:39.873Z,25.01
2022-10-19T13:22:34.490Z,24.97
2022-10-19T13:25:58.915Z,25.24
2022-10-19T13:39:03.281Z,25.07
2022-10-19T14:17:03.871Z,25.38
2022-10-19T14:38:35.581Z,24.86
2022-10-19T14:41:12.207Z,24.81
2022-10-19T14:49:23.230Z,24.82
2022-10-19T14:54:55.572Z,24.70
2022-10-19T14:57:36.865Z,24.72
2022-10-19T15:00:10.863Z,24.70
2022-10-19T15:02:49.493Z,24.70
2022-10-19T15:05:37.917Z,24.67
2022-10-19T15:08:09.697Z,24.58
2022-10-19T15:14:04.749Z,24.48
2022-10-19T15:17:06.414Z,24.48
2022-10-19T15:19:44.275Z,24.44
2022-10-19T15:22:51.449Z,24.19
2022-10-19T15:30:29.389Z,24.02
2022-10-19T15:33:23.135Z,24.07
2022-10-19T15:39:38.949Z,24.06
2022-10-19T15:43:17.858Z,24.00
2022-10-19T15:46:59.512Z,23.94
2022-10-19T15:50:26.801Z,23.89
2022-10-19T15:53:22.734Z,23.82
2022-10-19T15:56:12.523Z,23.77
2022-10-19T16:10:42.903Z,23.66
2022-10-19T16:13:47.587Z,23.54
2022-10-19T16:16:42.123Z,23.58
2022-10-19T16:19:19.328Z,23.60
2022-10-19T16:24:37.424Z,23.44
2022-10-19T16:27:08.505Z,23.55
2022-10-19T16:29:36.657Z,23.53
2022-10-19T16:32:23.769Z,23.51
2022-10-19T16:35:00.810Z,23.47
2022-10-19T16:37:29.237Z,23.31
2022-10-19T16:39:57.316Z,23.40
2022-10-19T16:42:30.601Z,23.34
2022-10-19T16:45:00.238Z,23.28
2022-10-19T16:47:29.523Z,23.29
2022-10-19T16:50:20.108Z,23.32
2022-10-19T16:53:10.474Z,23.21
2022-10-19T16:56:05.321Z,23.24
2022-10-19T16:58:42.089Z,23.18
2022-10-19T17:01:25.877Z,23.18
2022-10-19T17:03:54.713Z,23.17
2022-10-19T17:09:45.369Z,22.96
2022-10-19T17:13:07.382Z,23.11
2022-10-19T17:15:45.436Z,22.92
2022-10-19T17:18:47.391Z,23.06
2022-10-19T17:21:18.992Z,23.03
2022-10-19T17:24:20.362Z,23.06
2022-10-19T17:27:19.482Z,23.03
2022-10-19T17:35:41.963Z,23.12
2022-10-19T17:41:03.893Z,22.95
2022-10-19T17:43:48.692Z,23.10
2022-10-19T17:47:23.176Z,23.10
2022-10-19T17:49:53.039Z,23.01
2022-10-19T17:52:27.452Z,23.09
2022-10-19T17:55:12.627Z,23.10
2022-10-19T17:57:45.523Z,23.11
2022-10-19T18:00:16.770Z,23.05
2022-10-19T18:02:51.766Z,23.06
2022-10-19T18:05:52.233Z,23.09
2022-10-19T18:09:13.731Z,23.10
2022-10-19T18:12:18.577Z,22.90
2022-10-19T18:17:31.879Z,23.04
2022-10-19T18:20:32.551Z,23.08
2022-10-19T18:23:06.628Z,22.97
2022-10-19T18:26:13.510Z,23.03
2022-10-19T18:35:54.802Z,22.82
2022-10-19T18:38:23.956Z,22.81
2022-10-19T18:40:59.775Z,22.86
2022-10-19T18:43:46.505Z,22.80
2022-10-19T18:46:16.454Z,22.81
2022-10-19T18:48:46.578Z,22.74
2022-10-19T18:51:18.651Z,22.76
2022-10-19T18:53:58.103Z,22.73
2022-10-19T18:56:52.807Z,22.72
2022-10-19T19:01:54.867Z,22.63
2022-10-19T19:04:31.450Z,22.70
2022-10-19T19:07:07.049Z,22.70
2022-10-19T19:09:37.755Z,22.52
2022-10-19T19:12:22.649Z,22.66
2022-10-19T19:14:51.377Z,22.65
2022-10-19T19:17:29.513Z,22.58
2022-10-19T19:20:20.250Z,22.68
2022-10-19T19:22:51.162Z,22.65
2022-10-19T19:25:40.664Z,22.56
2022-10-19T19:28:22.681Z,22.61
2022-10-19T19:30:50.830Z,22.62
2022-10-19T19:33:18.897Z,22.64
2022-10-19T19:36:03.159Z,22.66
2022-10-19T19:38:41.425Z,22.56
2022-10-19T19:44:58.745Z,22.55
2022-10-19T19:58:23.919Z,22.38
2022-10-19T20:01:12.155Z,22.31
2022-10-19T20:04:04.198Z,22.38
2022-10-19T20:07:10.512Z,22.39
2022-10-19T20:09:42.394Z,22.30
2022-10-19T20:12:18.922Z,22.37
2022-10-19T20:15:06.321Z,22.38
2022-10-19T20:17:50.207Z,22.35
2022-10-19T20:20:54.920Z,22.26
2022-10-19T20:23:29.939Z,22.31
2022-10-19T20:25:59.168Z,22.23
2022-10-19T20:28:32.708Z,22.24
2022-10-19T20:31:02.043Z,22.18
2022-10-19T20:37:16.716Z,22.10
2022-10-19T20:40:09.535Z,21.98
2022-10-19T20:42:38.111Z,21.93
2022-10-19T20:45:07.441Z,21.93
2022-10-19T20:48:26.451Z,22.05
2022-10-19T20:51:16.165Z,22.03
2022-10-19T20:54:00.398Z,21.97
2022-10-19T20:57:47.561Z,22.05
2022-10-19T21:00:23.438Z,22.08
2022-10-19T21:02:55.074Z,22.09
2022-10-19T21:05:23.469Z,22.12
2022-10-19T21:07:58.800Z,22.14
2022-10-19T21:10:42.939Z,22.16
2022-10-19T21:13:26.847Z,22.15
2022-10-19T21:16:04.372Z,22.16
2022-10-19T21:18:39.009Z,22.14
2022-10-19T21:21:18.352Z,22.10
2022-10-19T21:23:52.595Z,22.02
2022-10-19T21:26:40.983Z,22.00
2022-10-19T21:32:22.320Z,21.95
2022-10-19T21:34:50.628Z,21.93
2022-10-19T21:37:51.361Z,21.92
2022-10-19T21:40:22.678Z,21.88
2022-10-19T21:43:32.679Z,21.88
2022-10-19T21:46:29.782Z,21.84
2022-10-19T21:49:53.930Z,21.82
2022-10-19T21:52:37.431Z,21.69
2022-10-19T21:58:51.535Z,21.69
2022-10-19T22:01:20.744Z,21.77
2022-10-19T22:03:56.107Z,21.73
2022-10-19T22:06:27.548Z,21.77
2022-10-19T22:08:59.658Z,21.74
2022-10-19T22:15:36.224Z,21.66
2022-10-19T22:18:04.770Z,21.67
2022-10-19T22:20:57.840Z,21.65
2022-10-19T22:24:19.889Z,21.67
2022-10-19T22:26:50.735Z,21.63
2022-10-19T22:29:21.415Z,21.58
2022-10-19T22:35:01.497Z,21.52
2022-10-19T22:38:01.041Z,21.51
2022-10-19T22:40:39.936Z,21.50
2022-10-19T22:43:12.277Z,21.48
2022-10-19T22:45:44.117Z,21.42
2022-10-19T22:49:28.846Z,21.49
2022-10-19T22:52:13.967Z,21.31
2022-10-19T22:55:04.066Z,21.33
2022-10-19T22:57:41.429Z,21.18
2022-10-19T23:00:44.383Z,21.32
2022-10-19T23:03:15.306Z,21.27
2022-10-19T23:06:41.135Z,21.28
2022-10-19T23:09:09.821Z,21.18
2022-10-19T23:21:30.916Z,21.00
2022-10-19T23:24:23.770Z,20.97
2022-10-19T23:27:15.720Z,21.07
2022-10-19T23:30:21.126Z,21.04
2022-10-19T23:33:34.449Z,21.03
2022-10-19T23:36:08.715Z,20.86
2022-10-19T23:41:56.783Z,20.96
2022-10-19T23:44:29.443Z,20.94
2022-10-19T23:47:00.956Z,20.89
2022-10-19T23:50:23.332Z,20.81
2022-10-19T23:56:50.523Z,20.76
2022-10-19T23:59:42.517Z,20.79
